Time;durP1;ratioP1;P1;durP2;ratioP2;P2;SDS_P1;SDS_P2;PMS_P1;PMS_P2;Temp;Humidity;BMP_temperature;BMP_pressure;BME280_temperature;BME280_humidity;BME280_pressure;Samples;Min_cycle;Max_cycle;Signal;HPM_P1;HPM_P2
2022/03/15 00:01:25;;;;;;;58.03;39.30;;;;;;;;;;5010178;28;20596;-35
2022/03/15 00:03:51;;;;;;;62.57;40.77;;;;;;;;;;4988357;28;20426;-35
2022/03/15 00:06:17;;;;;;;60.70;38.73;;;;;;;;;;5006400;28;20418;-35
2022/03/15 00:08:48;;;;;;;60.40;38.03;;;;;;;;;;5008738;28;20457;-35
2022/03/15 00:11:14;;;;;;;54.67;37.80;;;;;;;;;;5008819;28;20452;-35
2022/03/15 00:13:40;;;;;;;60.10;39.30;;;;;;;;;;5009585;28;20606;-35
2022/03/15 00:16:10;;;;;;;58.43;37.03;;;;;;;;;;5011211;28;20700;-35
2022/03/15 00:18:37;;;;;;;58.00;38.73;;;;;;;;;;5007512;28;20430;-35
2022/03/15 00:21:04;;;;;;;59.27;39.43;;;;;;;;;;5007121;28;20424;-35
2022/03/15 00:23:31;;;;;;;63.83;40.10;;;;;;;;;;5009433;28;20450;-35
2022/03/15 00:25:57;;;;;;;67.57;42.60;;;;;;;;;;5010719;28;21142;-35
2022/03/15 00:28:24;;;;;;;75.97;45.73;;;;;;;;;;5008590;28;21140;-35
2022/03/15 00:30:50;;;;;;;67.40;45.50;;;;;;;;;;5007338;28;20525;-35
2022/03/15 00:33:16;;;;;;;71.97;45.50;;;;;;;;;;5007538;28;21018;-35
2022/03/15 00:35:43;;;;;;;68.90;43.80;;;;;;;;;;5008037;28;20410;-35
2022/03/15 00:38:09;;;;;;;74.07;43.00;;;;;;;;;;5009774;28;20816;-35
2022/03/15 00:40:36;;;;;;;66.10;41.33;;;;;;;;;;5006543;28;20528;-36
2022/03/15 00:43:02;;;;;;;64.63;42.67;;;;;;;;;;5009981;28;20422;-35
2022/03/15 00:45:29;;;;;;;64.47;40.90;;;;;;;;;;5008016;28;20423;-35
2022/03/15 00:47:55;;;;;;;74.53;44.07;;;;;;;;;;5005217;28;20565;-35
2022/03/15 00:50:22;;;;;;;70.77;44.60;;;;;;;;;;5007771;28;20547;-35
2022/03/15 00:52:48;;;;;;;67.17;42.83;;;;;;;;;;5009713;28;20596;-35
2022/03/15 00:55:15;;;;;;;67.23;42.77;;;;;;;;;;5009801;28;20944;-35
2022/03/15 00:57:41;;;;;;;63.07;42.00;;;;;;;;;;5008425;28;21037;-36
2022/03/15 01:00:08;;;;;;;62.73;42.47;;;;;;;;;;5010555;28;20932;-35
2022/03/15 01:02:34;;;;;;;60.03;40.43;;;;;;;;;;5008271;28;20519;-35
2022/03/15 01:05:00;;;;;;;66.57;42.30;;;;;;;;;;5005883;28;20418;-35
2022/03/15 01:07:26;;;;;;;62.77;41.03;;;;;;;;;;5008072;28;20519;-35
2022/03/15 01:09:53;;;;;;;58.30;40.13;;;;;;;;;;5012156;28;20482;-35
2022/03/15 01:12:19;;;;;;;61.20;38.67;;;;;;;;;;5013989;28;20427;-35
2022/03/15 01:14:45;;;;;;;60.57;40.37;;;;;;;;;;5006063;28;20426;-35
2022/03/15 01:17:12;;;;;;;64.17;40.60;;;;;;;;;;5006961;28;20419;-35
2022/03/15 01:19:38;;;;;;;59.53;39.57;;;;;;;;;;5011316;28;20451;-36
2022/03/15 01:22:04;;;;;;;67.03;41.30;;;;;;;;;;4992747;28;20871;-35
2022/03/15 01:24:30;;;;;;;65.70;43.03;;;;;;;;;;4989201;28;20873;-35
2022/03/15 01:26:57;;;;;;;68.27;42.50;;;;;;;;;;5007186;28;20448;-35
2022/03/15 01:29:26;;;;;;;65.90;41.57;;;;;;;;;;5007446;28;20443;-35
2022/03/15 01:31:52;;;;;;;65.33;41.93;;;;;;;;;;5005630;28;20429;-36
2022/03/15 01:34:18;;;;;;;69.93;43.80;;;;;;;;;;5007450;28;20437;-35
2022/03/15 01:36:44;;;;;;;71.90;44.17;;;;;;;;;;5008983;28;20447;-36
2022/03/15 01:39:11;;;;;;;76.20;48.13;;;;;;;;;;5006306;28;20448;-36
2022/03/15 01:41:39;;;;;;;77.63;48.17;;;;;;;;;;5007475;28;20438;-35
2022/03/15 01:44:05;;;;;;;73.80;49.13;;;;;;;;;;5006926;28;20451;-36
2022/03/15 01:46:31;;;;;;;75.00;47.60;;;;;;;;;;5008447;28;20422;-35
2022/03/15 01:48:57;;;;;;;76.97;48.03;;;;;;;;;;5002169;28;20447;-36
2022/03/15 01:51:24;;;;;;;75.43;47.20;;;;;;;;;;5006743;28;20425;-36
2022/03/15 01:53:50;;;;;;;72.73;46.23;;;;;;;;;;5010797;28;20507;-35
2022/03/15 01:56:16;;;;;;;74.83;48.83;;;;;;;;;;5009106;28;20921;-36
2022/03/15 01:58:42;;;;;;;80.83;48.93;;;;;;;;;;5008936;28;20577;-36
2022/03/15 02:01:08;;;;;;;75.07;48.53;;;;;;;;;;5003248;28;21070;-36
2022/03/15 02:03:35;;;;;;;80.33;50.20;;;;;;;;;;5009425;28;20717;-35
2022/03/15 02:06:01;;;;;;;77.03;48.00;;;;;;;;;;5008071;28;20954;-36
2022/03/15 02:08:28;;;;;;;80.60;49.50;;;;;;;;;;5010114;28;20557;-36
2022/03/15 02:10:54;;;;;;;72.80;47.97;;;;;;;;;;5009600;28;20422;-36
2022/03/15 02:13:20;;;;;;;80.63;48.07;;;;;;;;;;5007039;28;20433;-35
2022/03/15 02:15:46;;;;;;;77.70;49.13;;;;;;;;;;5008140;28;20430;-35
2022/03/15 02:18:12;;;;;;;75.90;48.40;;;;;;;;;;5007897;28;20722;-36
2022/03/15 02:20:38;;;;;;;72.53;46.70;;;;;;;;;;5010999;28;20422;-36
2022/03/15 02:23:04;;;;;;;82.17;49.63;;;;;;;;;;5008297;28;20479;-36
2022/03/15 02:25:30;;;;;;;81.37;50.70;;;;;;;;;;5003355;28;20589;-35
2022/03/15 02:27:56;;;;;;;82.37;50.60;;;;;;;;;;5007777;28;20422;-35
2022/03/15 02:30:22;;;;;;;83.93;51.30;;;;;;;;;;5008384;28;20710;-36
2022/03/15 02:32:49;;;;;;;75.07;48.53;;;;;;;;;;5010452;28;20920;-35
2022/03/15 02:35:15;;;;;;;75.17;49.33;;;;;;;;;;5007204;28;20903;-36
2022/03/15 02:37:42;;;;;;;79.53;50.97;;;;;;;;;;5005641;28;20419;-38
2022/03/15 02:40:08;;;;;;;71.37;47.40;;;;;;;;;;5004756;28;20843;-35
2022/03/15 02:42:35;;;;;;;73.07;47.27;;;;;;;;;;5009460;28;22481;-36
2022/03/15 02:45:01;;;;;;;73.50;47.10;;;;;;;;;;5007752;28;20438;-36
2022/03/15 02:47:27;;;;;;;75.23;48.57;;;;;;;;;;5009946;28;20426;-36
2022/03/15 02:49:54;;;;;;;74.53;47.40;;;;;;;;;;5005975;28;20454;-35
2022/03/15 02:52:20;;;;;;;78.60;49.00;;;;;;;;;;5007002;28;20433;-36
2022/03/15 02:54:46;;;;;;;74.83;47.57;;;;;;;;;;5007060;28;20426;-35
2022/03/15 02:57:12;;;;;;;75.10;47.77;;;;;;;;;;5005249;28;20877;-36
2022/03/15 02:59:39;;;;;;;80.00;48.87;;;;;;;;;;5009544;28;20501;-36
2022/03/15 03:02:08;;;;;;;79.57;47.27;;;;;;;;;;5005496;28;21110;-36
2022/03/15 03:04:34;;;;;;;78.40;47.00;;;;;;;;;;5001329;28;20423;-36
2022/03/15 03:07:03;;;;;;;80.30;48.70;;;;;;;;;;5008243;28;20946;-36
2022/03/15 03:09:29;;;;;;;70.90;46.77;;;;;;;;;;5006419;28;20454;-36
2022/03/15 03:11:57;;;;;;;67.93;46.23;;;;;;;;;;5007146;28;20727;-36
2022/03/15 03:14:23;;;;;;;68.43;43.40;;;;;;;;;;5005353;28;20422;-36
2022/03/15 03:16:50;;;;;;;64.53;41.47;;;;;;;;;;5001774;28;21373;-35
2022/03/15 03:19:16;;;;;;;63.90;42.10;;;;;;;;;;5002865;28;20434;-36
2022/03/15 03:21:42;;;;;;;61.97;40.70;;;;;;;;;;5006430;28;20502;-36
2022/03/15 03:24:09;;;;;;;62.00;40.77;;;;;;;;;;5013065;28;20419;-36
2022/03/15 03:26:41;;;;;;;60.70;39.83;;;;;;;;;;5011524;28;20724;-35
2022/03/15 03:29:11;;;;;;;62.53;39.63;;;;;;;;;;4991732;28;20449;-36
2022/03/15 03:31:38;;;;;;;63.97;41.63;;;;;;;;;;5006026;28;20414;-36
2022/03/15 03:34:04;;;;;;;64.17;42.27;;;;;;;;;;5007390;28;20645;-36
2022/03/15 03:36:31;;;;;;;71.37;44.33;;;;;;;;;;5013802;28;20426;-36
2022/03/15 03:38:57;;;;;;;63.87;42.43;;;;;;;;;;5012241;28;20856;-36
2022/03/15 03:41:24;;;;;;;75.60;45.10;;;;;;;;;;5009073;28;20593;-36
2022/03/15 03:43:50;;;;;;;69.47;45.33;;;;;;;;;;5005545;28;20428;-36
2022/03/15 03:46:17;;;;;;;65.03;42.80;;;;;;;;;;5007744;28;20493;-36
2022/03/15 03:48:44;;;;;;;73.17;46.40;;;;;;;;;;5008595;28;20846;-36
2022/03/15 03:51:13;;;;;;;67.67;43.40;;;;;;;;;;5009711;28;20456;-36
2022/03/15 03:53:39;;;;;;;69.00;45.47;;;;;;;;;;5011213;28;20921;-36
2022/03/15 03:56:05;;;;;;;70.30;47.33;;;;;;;;;;5013280;28;20546;-36
2022/03/15 03:58:31;;;;;;;74.37;46.57;;;;;;;;;;5010838;28;20495;-36
2022/03/15 04:00:57;;;;;;;71.57;47.47;;;;;;;;;;5007131;28;20475;-35
2022/03/15 04:03:24;;;;;;;71.30;46.17;;;;;;;;;;5009492;28;20426;-36
2022/03/15 04:05:51;;;;;;;72.53;46.63;;;;;;;;;;5010891;28;20965;-36
2022/03/15 04:08:18;;;;;;;69.67;46.03;;;;;;;;;;5012584;28;21057;-36
2022/03/15 04:10:47;;;;;;;76.07;47.00;;;;;;;;;;5009819;28;20418;-36
2022/03/15 04:13:18;;;;;;;72.17;45.60;;;;;;;;;;5009106;28;20421;-36
2022/03/15 04:15:45;;;;;;;71.77;45.20;;;;;;;;;;5010922;28;20414;-35
2022/03/15 04:18:11;;;;;;;71.07;44.30;;;;;;;;;;5009569;28;20808;-36
2022/03/15 04:20:38;;;;;;;72.47;45.87;;;;;;;;;;5012468;28;20660;-36
2022/03/15 04:23:04;;;;;;;67.43;43.47;;;;;;;;;;5007281;28;20501;-35
2022/03/15 04:25:30;;;;;;;63.13;42.37;;;;;;;;;;5004961;28;20873;-36
2022/03/15 04:28:00;;;;;;;63.97;40.83;;;;;;;;;;5012631;28;20426;-35
2022/03/15 04:30:26;;;;;;;71.53;44.47;;;;;;;;;;5009014;28;21042;-35
2022/03/15 04:32:52;;;;;;;67.07;43.10;;;;;;;;;;5013069;28;20423;-35
2022/03/15 04:35:18;;;;;;;67.17;43.03;;;;;;;;;;5007961;28;20780;-35
2022/03/15 04:37:45;;;;;;;66.83;44.03;;;;;;;;;;5008379;28;20415;-35
2022/03/15 04:40:12;;;;;;;67.67;45.00;;;;;;;;;;5008811;28;20418;-35
2022/03/15 04:42:38;;;;;;;64.00;45.17;;;;;;;;;;5009690;28;20913;-35
2022/03/15 04:45:05;;;;;;;70.67;45.03;;;;;;;;;;5008070;28;20457;-35
2022/03/15 04:47:31;;;;;;;72.10;46.40;;;;;;;;;;5012397;28;20795;-35
2022/03/15 04:49:57;;;;;;;70.43;45.07;;;;;;;;;;5005957;28;20443;-36
2022/03/15 04:52:23;;;;;;;73.53;45.93;;;;;;;;;;5006003;28;20429;-35
2022/03/15 04:54:50;;;;;;;72.13;45.67;;;;;;;;;;5009425;28;20426;-35
2022/03/15 04:57:16;;;;;;;70.93;46.77;;;;;;;;;;5009150;28;20485;-36
2022/03/15 04:59:42;;;;;;;78.63;49.17;;;;;;;;;;5011530;28;20511;-35
2022/03/15 05:02:08;;;;;;;70.83;46.90;;;;;;;;;;5009772;28;20868;-36
2022/03/15 05:04:34;;;;;;;75.37;47.70;;;;;;;;;;5010439;28;20586;-35
2022/03/15 05:07:00;;;;;;;72.90;47.70;;;;;;;;;;5003438;28;20994;-35
2022/03/15 05:09:26;;;;;;;76.97;49.07;;;;;;;;;;5010519;28;20747;-36
2022/03/15 05:11:52;;;;;;;73.77;48.37;;;;;;;;;;5011795;28;20419;-35
2022/03/15 05:14:19;;;;;;;76.87;49.57;;;;;;;;;;5010710;28;20418;-35
2022/03/15 05:16:45;;;;;;;78.10;50.63;;;;;;;;;;5009872;28;20468;-35
2022/03/15 05:19:11;;;;;;;74.13;47.73;;;;;;;;;;5006240;28;20759;-35
2022/03/15 05:21:37;;;;;;;80.13;49.37;;;;;;;;;;5008671;28;20677;-35
2022/03/15 05:24:04;;;;;;;75.20;47.00;;;;;;;;;;5008757;28;20433;-36
2022/03/15 05:26:30;;;;;;;80.13;46.97;;;;;;;;;;5011185;28;21095;-36
2022/03/15 05:28:56;;;;;;;71.97;46.47;;;;;;;;;;5009208;28;20453;-35
2022/03/15 05:31:23;;;;;;;82.03;50.57;;;;;;;;;;5007831;28;21002;-35
2022/03/15 05:33:49;;;;;;;81.47;51.73;;;;;;;;;;5005752;28;20464;-36
2022/03/15 05:36:15;;;;;;;81.03;50.40;;;;;;;;;;5009827;28;20618;-36
2022/03/15 05:38:42;;;;;;;80.80;47.97;;;;;;;;;;5013903;28;20506;-35
2022/03/15 05:41:08;;;;;;;76.77;49.43;;;;;;;;;;5009677;28;20854;-36
2022/03/15 05:43:35;;;;;;;77.70;50.37;;;;;;;;;;5008234;28;20893;-36
2022/03/15 05:46:02;;;;;;;82.00;51.50;;;;;;;;;;5007577;28;20426;-36
2022/03/15 05:48:28;;;;;;;80.93;51.07;;;;;;;;;;5010481;28;20450;-35
2022/03/15 05:50:54;;;;;;;73.37;44.90;;;;;;;;;;5013849;28;20578;-35
2022/03/15 05:53:20;;;;;;;74.43;46.87;;;;;;;;;;5012057;28;20433;-35
2022/03/15 05:55:46;;;;;;;73.00;45.97;;;;;;;;;;5012968;28;20981;-35
2022/03/15 05:58:14;;;;;;;72.33;44.87;;;;;;;;;;5012654;28;20797;-36
2022/03/15 06:00:40;;;;;;;73.07;46.57;;;;;;;;;;5008941;28;20523;-35
2022/03/15 06:03:07;;;;;;;67.40;43.87;;;;;;;;;;5008779;28;21192;-36
2022/03/15 06:05:33;;;;;;;75.00;47.73;;;;;;;;;;5012764;28;20784;-36
2022/03/15 06:08:00;;;;;;;75.47;48.13;;;;;;;;;;5008096;28;20430;-36
2022/03/15 06:10:28;;;;;;;76.17;48.07;;;;;;;;;;5008919;28;20460;-36
2022/03/15 06:12:55;;;;;;;75.30;48.67;;;;;;;;;;5003909;28;20431;-35
2022/03/15 06:15:21;;;;;;;68.20;45.00;;;;;;;;;;5007889;28;20882;-35
2022/03/15 06:17:48;;;;;;;69.57;44.20;;;;;;;;;;5007089;28;20791;-35
2022/03/15 06:20:15;;;;;;;68.27;45.00;;;;;;;;;;5005407;28;20442;-35
2022/03/15 06:22:41;;;;;;;64.23;42.83;;;;;;;;;;5009808;28;20792;-36
2022/03/15 06:25:09;;;;;;;63.43;42.23;;;;;;;;;;4999652;28;20499;-35
2022/03/15 06:27:35;;;;;;;68.00;42.37;;;;;;;;;;5010151;28;20971;-35
2022/03/15 06:30:01;;;;;;;69.50;42.13;;;;;;;;;;5004283;28;20756;-36
2022/03/15 06:32:27;;;;;;;69.87;43.23;;;;;;;;;;5008281;28;20545;-36
2022/03/15 06:34:53;;;;;;;65.00;42.77;;;;;;;;;;5000258;28;21960;-35
2022/03/15 06:37:19;;;;;;;67.57;44.93;;;;;;;;;;5010040;28;20932;-37
2022/03/15 06:39:45;;;;;;;66.20;43.33;;;;;;;;;;5009891;28;20421;-36
2022/03/15 06:42:11;;;;;;;62.67;41.87;;;;;;;;;;5010647;28;20436;-36
2022/03/15 06:44:43;;;;;;;64.10;41.80;;;;;;;;;;5006208;28;21004;-35
2022/03/15 06:47:09;;;;;;;65.60;42.70;;;;;;;;;;5005529;28;20441;-35
2022/03/15 06:49:35;;;;;;;62.77;41.13;;;;;;;;;;5008286;28;21082;-36
2022/03/15 06:52:01;;;;;;;59.47;39.60;;;;;;;;;;5016044;28;20499;-37
2022/03/15 06:54:28;;;;;;;70.57;41.67;;;;;;;;;;5012749;28;20421;-36
2022/03/15 06:56:56;;;;;;;63.80;40.77;;;;;;;;;;5009626;28;20535;-36
2022/03/15 06:59:22;;;;;;;66.03;41.37;;;;;;;;;;5008885;28;20496;-36
2022/03/15 07:01:48;;;;;;;65.20;41.80;;;;;;;;;;5010108;28;20450;-36
2022/03/15 07:04:14;;;;;;;64.60;40.77;;;;;;;;;;4987691;28;20435;-36
2022/03/15 07:06:40;;;;;;;70.87;43.03;;;;;;;;;;5012783;28;20895;-36
2022/03/15 07:09:06;;;;;;;68.17;43.53;;;;;;;;;;5009326;28;20458;-35
2022/03/15 07:11:32;;;;;;;62.73;42.97;;;;;;;;;;5010640;28;21227;-36
2022/03/15 07:13:58;;;;;;;68.90;43.13;;;;;;;;;;5005114;28;21009;-36
2022/03/15 07:16:24;;;;;;;62.83;41.67;;;;;;;;;;5009965;28;21239;-36
2022/03/15 07:18:50;;;;;;;69.00;42.47;;;;;;;;;;5012568;28;20889;-36
2022/03/15 07:21:16;;;;;;;64.67;42.07;;;;;;;;;;4990985;28;20454;-36
2022/03/15 07:23:43;;;;;;;61.13;39.97;;;;;;;;;;4994004;28;21613;-35
2022/03/15 07:26:09;;;;;;;70.63;42.20;;;;;;;;;;5005765;28;20982;-36
2022/03/15 07:28:35;;;;;;;65.73;42.80;;;;;;;;;;5001931;28;20909;-36
2022/03/15 07:31:02;;;;;;;64.10;40.63;;;;;;;;;;5008716;28;20407;-36
2022/03/15 07:33:28;;;;;;;60.23;39.43;;;;;;;;;;5009315;28;20440;-36
2022/03/15 07:35:54;;;;;;;64.13;40.60;;;;;;;;;;5005597;28;20590;-36
2022/03/15 07:38:20;;;;;;;64.30;43.03;;;;;;;;;;5007370;28;20421;-36
2022/03/15 07:40:46;;;;;;;65.33;43.10;;;;;;;;;;5006874;28;21152;-36
2022/03/15 07:43:13;;;;;;;59.83;41.43;;;;;;;;;;5006022;28;20496;-36
2022/03/15 07:45:39;;;;;;;66.83;42.27;;;;;;;;;;5007343;28;20773;-36
2022/03/15 07:48:05;;;;;;;67.77;44.93;;;;;;;;;;5013551;28;20445;-36
2022/03/15 07:50:32;;;;;;;66.93;43.97;;;;;;;;;;5013461;28;20200;-36
2022/03/15 07:52:58;;;;;;;70.17;44.93;;;;;;;;;;5006874;28;20850;-36
2022/03/15 07:55:24;;;;;;;72.60;44.70;;;;;;;;;;4987870;28;20184;-36
2022/03/15 07:57:50;;;;;;;70.03;44.90;;;;;;;;;;5007882;28;20184;-36
2022/03/15 08:00:17;;;;;;;69.03;45.27;;;;;;;;;;5007781;28;21460;-36
2022/03/15 08:02:43;;;;;;;68.10;45.10;;;;;;;;;;5007901;28;20434;-36
2022/03/15 08:05:10;;;;;;;67.80;43.30;;;;;;;;;;5002703;28;20180;-36
2022/03/15 08:07:36;;;;;;;71.80;45.40;;;;;;;;;;5007956;28;20719;-36
2022/03/15 08:10:07;;;;;;;69.83;45.37;;;;;;;;;;5011147;28;20361;-36
2022/03/15 08:12:33;;;;;;;65.93;42.57;;;;;;;;;;5013285;28;20417;-36
2022/03/15 08:14:59;;;;;;;73.73;45.43;;;;;;;;;;5007264;28;20677;-36
2022/03/15 08:17:25;;;;;;;67.20;43.47;;;;;;;;;;5009447;28;20278;-36
2022/03/15 08:19:53;;;;;;;66.83;44.80;;;;;;;;;;5011895;28;20247;-36
2022/03/15 08:22:19;;;;;;;64.10;43.37;;;;;;;;;;4995073;28;20180;-36
2022/03/15 08:24:45;;;;;;;69.03;43.83;;;;;;;;;;5013900;28;20180;-36
2022/03/15 08:27:12;;;;;;;65.80;42.97;;;;;;;;;;5011398;28;20187;-36
2022/03/15 08:29:38;;;;;;;64.60;43.73;;;;;;;;;;5008489;28;20211;-36
2022/03/15 08:32:06;;;;;;;71.27;44.90;;;;;;;;;;5008456;28;20722;-36
2022/03/15 08:34:32;;;;;;;65.50;42.87;;;;;;;;;;5009066;28;20183;-36
2022/03/15 08:36:58;;;;;;;64.60;43.67;;;;;;;;;;5012535;28;20875;-36
2022/03/15 08:39:24;;;;;;;68.63;43.30;;;;;;;;;;5013360;28;20500;-36
2022/03/15 08:41:51;;;;;;;63.50;44.53;;;;;;;;;;5011863;28;20548;-35
2022/03/15 08:44:18;;;;;;;66.47;43.63;;;;;;;;;;5008105;28;20614;-36
2022/03/15 08:46:45;;;;;;;64.13;41.83;;;;;;;;;;5009260;28;20949;-36
2022/03/15 08:49:11;;;;;;;64.63;42.37;;;;;;;;;;5012475;28;20223;-37
2022/03/15 08:51:37;;;;;;;66.57;44.27;;;;;;;;;;5012667;28;20264;-36
2022/03/15 08:54:06;;;;;;;70.43;44.93;;;;;;;;;;5014438;28;20191;-36
2022/03/15 08:56:32;;;;;;;63.37;44.37;;;;;;;;;;5010509;28;20625;-36
2022/03/15 08:58:58;;;;;;;62.60;43.53;;;;;;;;;;5011534;28;20866;-36
2022/03/15 09:01:24;;;;;;;67.17;44.77;;;;;;;;;;5011787;28;20237;-36
2022/03/15 09:03:50;;;;;;;67.47;44.60;;;;;;;;;;5014864;28;20222;-36
2022/03/15 09:06:16;;;;;;;71.17;45.90;;;;;;;;;;5008624;28;20177;-36
2022/03/15 09:08:42;;;;;;;65.37;44.27;;;;;;;;;;5009989;28;20577;-35
2022/03/15 09:11:09;;;;;;;64.60;43.07;;;;;;;;;;5006751;28;20196;-36
2022/03/15 09:13:35;;;;;;;62.53;43.10;;;;;;;;;;5012245;28;20577;-36
2022/03/15 09:16:02;;;;;;;63.67;43.13;;;;;;;;;;5013214;28;20180;-36
2022/03/15 09:18:29;;;;;;;67.57;46.07;;;;;;;;;;5012328;28;20180;-36
2022/03/15 09:20:55;;;;;;;61.27;43.30;;;;;;;;;;5009779;28;20787;-36
2022/03/15 09:23:22;;;;;;;58.00;40.50;;;;;;;;;;5008640;28;20479;-36
2022/03/15 09:25:49;;;;;;;56.60;39.30;;;;;;;;;;5013818;28;20198;-36
2022/03/15 09:28:16;;;;;;;60.33;39.63;;;;;;;;;;5012486;28;20194;-36
2022/03/15 09:30:42;;;;;;;52.63;37.60;;;;;;;;;;5007777;28;20188;-36
2022/03/15 09:33:08;;;;;;;54.23;39.13;;;;;;;;;;5006728;28;20422;-37
2022/03/15 09:35:35;;;;;;;55.33;37.87;;;;;;;;;;5005035;28;20219;-36
2022/03/15 09:38:01;;;;;;;56.40;39.00;;;;;;;;;;5013239;28;20538;-36
2022/03/15 09:40:27;;;;;;;55.70;39.77;;;;;;;;;;5010864;28;20675;-36
2022/03/15 09:43:01;;;;;;;57.37;39.03;;;;;;;;;;5009804;28;20190;-36
2022/03/15 09:45:34;;;;;;;54.80;38.80;;;;;;;;;;5007491;28;20270;-36
2022/03/15 09:48:02;;;;;;;55.07;38.73;;;;;;;;;;5010675;28;20187;-36
2022/03/15 09:50:28;;;;;;;58.43;40.03;;;;;;;;;;5009001;28;20208;-36
2022/03/15 09:52:55;;;;;;;62.90;40.40;;;;;;;;;;5015506;28;20458;-36
2022/03/15 09:55:21;;;;;;;59.57;39.13;;;;;;;;;;5012023;28;20173;-36
2022/03/15 09:57:51;;;;;;;58.23;38.73;;;;;;;;;;5010700;28;20612;-36
2022/03/15 10:00:17;;;;;;;54.30;38.37;;;;;;;;;;5008992;28;20253;-36
2022/03/15 10:02:44;;;;;;;53.67;36.40;;;;;;;;;;5008671;28;20300;-36
2022/03/15 10:05:11;;;;;;;54.73;39.10;;;;;;;;;;5009696;28;20180;-36
2022/03/15 10:07:38;;;;;;;51.93;37.43;;;;;;;;;;5011093;28;20191;-36
2022/03/15 10:10:06;;;;;;;52.87;37.93;;;;;;;;;;5004424;28;20273;-36
2022/03/15 10:12:32;;;;;;;55.27;37.87;;;;;;;;;;4985217;28;20176;-36
2022/03/15 10:14:58;;;;;;;56.73;37.53;;;;;;;;;;5007929;28;20176;-36
2022/03/15 10:17:24;;;;;;;54.87;35.97;;;;;;;;;;5009720;28;20253;-36
2022/03/15 10:19:54;;;;;;;50.70;35.27;;;;;;;;;;5011398;28;20599;-36
2022/03/15 10:22:21;;;;;;;50.33;35.70;;;;;;;;;;5011513;28;20669;-36
2022/03/15 10:24:47;;;;;;;49.93;36.80;;;;;;;;;;5008707;28;20272;-37
2022/03/15 10:27:15;;;;;;;52.73;37.07;;;;;;;;;;5007845;28;20547;-36
2022/03/15 10:29:42;;;;;;;50.60;35.93;;;;;;;;;;5005881;28;20595;-36
2022/03/15 10:32:08;;;;;;;47.07;34.50;;;;;;;;;;5011344;28;20168;-36
2022/03/15 10:34:34;;;;;;;48.57;36.30;;;;;;;;;;5010255;28;20249;-36
2022/03/15 10:37:01;;;;;;;58.47;36.73;;;;;;;;;;5007740;28;20899;-36
2022/03/15 10:39:27;;;;;;;50.40;34.70;;;;;;;;;;5008194;28;20798;-36
2022/03/15 10:41:53;;;;;;;51.33;34.33;;;;;;;;;;5007625;28;20188;-36
2022/03/15 10:44:25;;;;;;;47.47;34.47;;;;;;;;;;5002341;28;20195;-36
2022/03/15 10:47:02;;;;;;;50.17;34.60;;;;;;;;;;4986309;28;20208;-36
2022/03/15 10:49:29;;;;;;;48.97;35.50;;;;;;;;;;5007493;28;20202;-36
2022/03/15 10:51:55;;;;;;;52.67;37.17;;;;;;;;;;5007875;28;20180;-37
2022/03/15 10:54:24;;;;;;;45.53;33.73;;;;;;;;;;5007112;28;20422;-36
2022/03/15 10:56:57;;;;;;;41.27;31.87;;;;;;;;;;5008821;28;20177;-36
2022/03/15 10:59:23;;;;;;;45.50;33.23;;;;;;;;;;5010934;28;20172;-36
2022/03/15 11:01:50;;;;;;;47.77;34.93;;;;;;;;;;5008736;28;20184;-36
2022/03/15 11:04:20;;;;;;;43.93;32.50;;;;;;;;;;5009378;28;20290;-36
2022/03/15 11:06:50;;;;;;;49.73;33.57;;;;;;;;;;5010002;28;20183;-36
2022/03/15 11:09:30;;;;;;;46.37;32.23;;;;;;;;;;5009078;28;20690;-36
2022/03/15 11:12:04;;;;;;;43.03;32.10;;;;;;;;;;5014587;28;20191;-36
2022/03/15 11:14:41;;;;;;;44.33;33.13;;;;;;;;;;5012146;28;20182;-36
2022/03/15 11:17:18;;;;;;;43.00;31.93;;;;;;;;;;5012138;28;20939;-36
2022/03/15 11:19:45;;;;;;;42.83;30.73;;;;;;;;;;5004250;28;20189;-36
2022/03/15 11:22:12;;;;;;;46.93;31.47;;;;;;;;;;5009457;28;20180;-36
2022/03/15 11:24:40;;;;;;;42.03;30.47;;;;;;;;;;5010950;28;20262;-36
2022/03/15 11:27:07;;;;;;;44.03;30.67;;;;;;;;;;5010034;28;20199;-36
2022/03/15 11:29:34;;;;;;;41.93;31.20;;;;;;;;;;5012637;28;20624;-36
2022/03/15 11:32:01;;;;;;;43.43;31.17;;;;;;;;;;5006258;28;20362;-36
2022/03/15 11:34:27;;;;;;;45.47;32.30;;;;;;;;;;5023654;28;20604;-35
2022/03/15 11:36:54;;;;;;;44.03;30.60;;;;;;;;;;5007097;28;20180;-36
2022/03/15 11:39:20;;;;;;;41.57;30.87;;;;;;;;;;5009475;28;20187;-36
2022/03/15 11:41:46;;;;;;;38.67;28.20;;;;;;;;;;5008622;28;20263;-36
2022/03/15 11:44:39;;;;;;;36.33;27.67;;;;;;;;;;5005453;28;20172;-36
2022/03/15 11:47:15;;;;;;;41.73;29.37;;;;;;;;;;5014730;28;20172;-36
2022/03/15 11:49:42;;;;;;;37.00;27.53;;;;;;;;;;5016171;28;20195;-36
2022/03/15 11:52:27;;;;;;;34.43;25.70;;;;;;;;;;5011337;28;20209;-36
2022/03/15 11:55:00;;;;;;;32.67;23.73;;;;;;;;;;5009061;28;20195;-35
2022/03/15 11:57:35;;;;;;;29.33;22.47;;;;;;;;;;5010911;28;20176;-35
2022/03/15 12:00:01;;;;;;;31.23;22.50;;;;;;;;;;5016469;28;20665;-35
2022/03/15 12:02:32;;;;;;;31.17;21.43;;;;;;;;;;5012843;28;20184;-36
2022/03/15 12:04:58;;;;;;;35.67;21.50;;;;;;;;;;5010975;28;20219;-36
2022/03/15 12:07:47;;;;;;;28.23;18.97;;;;;;;;;;5010920;28;20184;-36
2022/03/15 12:10:28;;;;;;;28.60;22.20;;;;;;;;;;4989627;28;20650;-36
2022/03/15 12:13:02;;;;;;;30.67;22.37;;;;;;;;;;5012611;28;20966;-35
2022/03/15 12:15:39;;;;;;;32.83;23.37;;;;;;;;;;5013031;28;20176;-36
2022/03/15 12:20:50;;;;;;;34.07;25.13;;;;;;;;;;5010846;28;20188;-36
2022/03/15 12:23:19;;;;;;;31.37;24.03;;;;;;;;;;5011246;28;20224;-36
2022/03/15 12:25:52;;;;;;;32.47;23.87;;;;;;;;;;5014792;28;20184;-36
2022/03/15 12:28:26;;;;;;;32.80;24.13;;;;;;;;;;5015154;28;20743;-35
2022/03/15 12:30:53;;;;;;;30.70;23.17;;;;;;;;;;5010648;28;20795;-35
2022/03/15 12:33:26;;;;;;;32.00;24.73;;;;;;;;;;5011335;28;20192;-35
2022/03/15 12:35:58;;;;;;;31.70;24.57;;;;;;;;;;4990916;28;20733;-35
2022/03/15 12:38:32;;;;;;;33.47;23.83;;;;;;;;;;5012701;28;20184;-35
2022/03/15 12:41:02;;;;;;;35.27;26.10;;;;;;;;;;5010804;28;20754;-36
2022/03/15 12:43:30;;;;;;;36.70;24.70;;;;;;;;;;5009703;28;20262;-35
2022/03/15 12:45:59;;;;;;;31.47;24.10;;;;;;;;;;5007713;28;20190;-35
2022/03/15 12:48:32;;;;;;;31.63;24.10;;;;;;;;;;5011222;28;20696;-36
2022/03/15 12:51:01;;;;;;;33.40;23.50;;;;;;;;;;5013193;28;20339;-36
2022/03/15 12:53:37;;;;;;;32.37;23.50;;;;;;;;;;5012717;28;20207;-35
2022/03/15 12:56:04;;;;;;;30.07;23.43;;;;;;;;;;5008538;28;20557;-35
2022/03/15 12:58:30;;;;;;;32.30;23.97;;;;;;;;;;5008718;28;20172;-35
2022/03/15 13:00:57;;;;;;;29.87;22.23;;;;;;;;;;5013198;28;20180;-36
2022/03/15 13:03:23;;;;;;;30.63;22.50;;;;;;;;;;5014873;28;20176;-36
2022/03/15 13:05:51;;;;;;;29.03;22.20;;;;;;;;;;5007824;28;20309;-36
2022/03/15 13:08:17;;;;;;;33.53;22.50;;;;;;;;;;5005897;28;20575;-36
2022/03/15 13:10:48;;;;;;;31.60;22.93;;;;;;;;;;5008931;28;20402;-36
2022/03/15 13:13:18;;;;;;;25.87;21.30;;;;;;;;;;5005314;28;20347;-36
2022/03/15 13:16:10;;;;;;;30.60;21.73;;;;;;;;;;5008081;28;20175;-36
2022/03/15 13:18:40;;;;;;;29.40;22.73;;;;;;;;;;5007928;28;20196;-35
2022/03/15 13:21:07;;;;;;;30.80;22.87;;;;;;;;;;5012238;28;21196;-35
2022/03/15 13:23:34;;;;;;;30.07;22.77;;;;;;;;;;4989053;28;20633;-35
2022/03/15 13:26:04;;;;;;;30.50;22.50;;;;;;;;;;5009223;28;20688;-35
2022/03/15 13:28:33;;;;;;;33.37;23.07;;;;;;;;;;5009111;28;20200;-35
2022/03/15 13:31:05;;;;;;;33.47;23.17;;;;;;;;;;5009144;28;20573;-36
2022/03/15 13:33:35;;;;;;;32.93;23.90;;;;;;;;;;5007584;28;20192;-36
2022/03/15 13:36:04;;;;;;;30.10;23.10;;;;;;;;;;5004824;28;20829;-36
2022/03/15 13:38:31;;;;;;;30.37;21.60;;;;;;;;;;5006518;28;20575;-35
2022/03/15 13:40:59;;;;;;;26.13;20.93;;;;;;;;;;5005462;28;20183;-35
2022/03/15 13:43:26;;;;;;;28.47;21.87;;;;;;;;;;4992738;28;20579;-36
2022/03/15 13:45:52;;;;;;;27.93;21.20;;;;;;;;;;5004868;28;20497;-35
2022/03/15 13:48:29;;;;;;;28.47;21.63;;;;;;;;;;5008343;28;20448;-35
2022/03/15 13:51:00;;;;;;;30.73;23.13;;;;;;;;;;5009225;28;20324;-35
2022/03/15 13:53:26;;;;;;;30.23;22.17;;;;;;;;;;5009596;28;20166;-35
2022/03/15 13:55:56;;;;;;;29.90;20.93;;;;;;;;;;5009977;28;20723;-35
2022/03/15 13:58:26;;;;;;;30.70;22.90;;;;;;;;;;5005049;28;20172;-35
2022/03/15 14:01:06;;;;;;;29.60;22.10;;;;;;;;;;5004467;28;20187;-35
2022/03/15 14:03:33;;;;;;;31.77;21.27;;;;;;;;;;5010645;28;20607;-35
2022/03/15 14:06:07;;;;;;;27.87;22.07;;;;;;;;;;5011022;28;20444;-35
2022/03/15 14:08:47;;;;;;;29.20;21.57;;;;;;;;;;5008732;28;20549;-36
2022/03/15 14:11:14;;;;;;;26.23;20.60;;;;;;;;;;5005530;28;20206;-35
2022/03/15 14:13:52;;;;;;;28.97;22.47;;;;;;;;;;5005231;28;20188;-35
2022/03/15 14:16:20;;;;;;;28.53;21.10;;;;;;;;;;5009321;28;20609;-35
2022/03/15 14:18:55;;;;;;;29.43;22.03;;;;;;;;;;5010868;28;20338;-35
2022/03/15 14:21:25;;;;;;;26.90;21.40;;;;;;;;;;5007630;28;20342;-35